createdAt,value
2023-04-09T00:03:31.656Z,27.60
2023-04-09T00:08:00.664Z,31.40
2023-04-09T00:12:29.855Z,32.80
2023-04-09T00:16:58.736Z,35.00
2023-04-09T00:21:27.794Z,32.00
2023-04-09T00:25:56.709Z,33.10
2023-04-09T00:30:25.377Z,30.50
2023-04-09T00:34:54.310Z,32.70
2023-04-09T00:39:23.194Z,33.20
2023-04-09T00:43:52.248Z,33.50
2023-04-09T00:48:20.916Z,32.90
2023-04-09T00:52:52.526Z,34.70
2023-04-09T00:57:21.496Z,34.70
2023-04-09T01:01:50.911Z,35.10
2023-04-09T01:06:25.800Z,35.30
2023-04-09T01:10:57.966Z,34.00
2023-04-09T01:15:41.517Z,33.60
2023-04-09T01:20:29.044Z,33.40
2023-04-09T01:25:03.611Z,36.60
2023-04-09T01:29:35.887Z,33.20
2023-04-09T01:34:04.651Z,34.20
2023-04-09T01:38:34.455Z,34.30
2023-04-09T01:43:03.632Z,33.80
2023-04-09T01:47:32.750Z,34.60
2023-04-09T01:52:01.678Z,34.90
2023-04-09T01:56:30.854Z,32.40
2023-04-09T02:06:11.298Z,29.20
2023-04-09T02:10:40.551Z,34.90
2023-04-09T02:15:09.815Z,33.30
2023-04-09T02:19:38.660Z,32.10
2023-04-09T02:24:07.960Z,31.40
2023-04-09T02:28:36.919Z,31.80
2023-04-09T02:33:05.905Z,32.40
2023-04-09T02:37:35.135Z,34.10
2023-04-09T02:42:04.020Z,31.40
2023-04-09T02:46:33.059Z,31.60
2023-04-09T02:51:02.569Z,32.90
2023-04-09T02:55:31.568Z,32.90
2023-04-09T03:00:00.415Z,33.40
2023-04-09T03:04:29.245Z,32.90
2023-04-09T03:08:58.008Z,34.30
2023-04-09T03:13:27.394Z,35.10
2023-04-09T03:17:56.529Z,34.60
2023-04-09T03:22:25.337Z,33.60
2023-04-09T03:27:03.067Z,34.30
2023-04-09T03:31:31.884Z,34.30
2023-04-09T03:36:00.879Z,32.80
2023-04-09T03:40:30.054Z,33.50
2023-04-09T03:45:03.886Z,32.60
2023-04-09T03:49:32.938Z,31.50
2023-04-09T03:54:02.070Z,34.20
2023-04-09T03:58:31.172Z,27.30
2023-04-09T04:03:00.370Z,31.20
2023-04-09T04:07:32.721Z,33.30
2023-04-09T04:12:04.162Z,31.60
2023-04-09T04:16:42.871Z,33.20
2023-04-09T04:21:11.766Z,33.20
2023-04-09T04:25:41.219Z,32.80
2023-04-09T04:30:10.286Z,32.80
2023-04-09T04:34:39.956Z,29.70
2023-04-09T04:39:09.285Z,32.40
2023-04-09T04:43:39.054Z,33.10
2023-04-09T04:48:08.313Z,33.40
2023-04-09T04:52:37.362Z,34.60
2023-04-09T04:57:06.737Z,33.60
2023-04-09T05:01:35.967Z,33.50
2023-04-09T05:06:04.794Z,32.70
2023-04-09T05:10:33.375Z,34.40
2023-04-09T05:15:02.801Z,31.40
2023-04-09T05:19:31.648Z,33.70
2023-04-09T05:24:00.676Z,29.30
2023-04-09T05:28:29.859Z,31.50
2023-04-09T05:33:00.191Z,28.10
2023-04-09T05:37:30.529Z,26.00
2023-04-09T05:41:59.833Z,29.40
2023-04-09T05:46:43.761Z,32.40
2023-04-09T05:51:15.928Z,23.30
2023-04-09T05:55:44.944Z,27.70
2023-04-09T06:00:14.221Z,32.60
2023-04-09T06:04:43.370Z,29.70
2023-04-09T06:09:12.406Z,32.00
2023-04-09T06:13:41.806Z,32.30
2023-04-09T06:18:11.201Z,30.20
2023-04-09T06:22:40.605Z,32.20
2023-04-09T06:28:45.834Z,32.50
2023-04-09T06:31:40.695Z,34.10
2023-04-09T06:36:10.044Z,34.50
2023-04-09T06:46:24.598Z,26.60
2023-04-09T06:50:04.879Z,31.60
2023-04-09T06:53:46.596Z,29.50
2023-04-09T06:57:25.962Z,30.30
2023-04-09T07:01:07.511Z,29.00
2023-04-09T07:04:33.987Z,26.50
2023-04-09T07:08:14.051Z,28.40
2023-04-09T07:11:52.801Z,31.10
2023-04-09T07:15:17.281Z,31.40
2023-04-09T07:18:59.130Z,28.40
2023-04-09T07:22:47.977Z,27.50
2023-04-09T07:26:36.917Z,26.40
2023-04-09T07:29:59.682Z,25.30
2023-04-09T07:33:38.449Z,25.90
2023-04-09T07:37:27.425Z,24.60
2023-04-09T07:40:59.150Z,25.90
2023-04-09T07:44:41.135Z,25.90
2023-04-09T07:48:30.482Z,20.60
2023-04-09T07:52:12.038Z,20.30
2023-04-09T07:55:50.205Z,25.20
2023-04-09T07:59:39.188Z,23.20
2023-04-09T08:03:20.261Z,25.90
2023-04-09T08:06:53.909Z,27.90
2023-04-09T08:10:43.159Z,26.10
2023-04-09T08:14:36.085Z,26.40
2023-04-09T08:18:07.370Z,24.80
2023-04-09T08:21:56.598Z,30.70
2023-04-09T08:25:35.656Z,24.20
2023-04-09T08:29:25.155Z,26.20
2023-04-09T08:33:14.724Z,24.40
2023-04-09T08:37:04.001Z,26.90
2023-04-09T08:41:44.683Z,27.70
2023-04-09T08:44:44.236Z,22.30
2023-04-09T08:48:12.174Z,26.90
2023-04-09T08:51:55.284Z,30.40
2023-04-09T08:55:45.566Z,30.30
2023-04-09T08:59:35.862Z,26.00
2023-04-09T09:03:35.314Z,30.50
2023-04-09T09:07:09.612Z,32.10
2023-04-09T09:10:59.306Z,25.30
2023-04-09T09:14:48.817Z,30.60
2023-04-09T09:18:37.281Z,30.10
2023-04-09T09:22:26.925Z,31.30
2023-04-09T09:26:18.470Z,23.50
2023-04-09T09:30:01.685Z,23.20
2023-04-09T09:33:53.692Z,25.40
2023-04-09T09:37:35.541Z,26.90
2023-04-09T09:41:10.327Z,24.10
2023-04-09T09:45:10.910Z,26.90
2023-04-09T09:48:41.966Z,26.90
2023-04-09T09:52:30.876Z,23.90
2023-04-09T09:56:13.567Z,25.50
2023-04-09T10:00:11.478Z,23.00
2023-04-09T10:04:06.117Z,25.80
2023-04-09T10:07:54.083Z,26.30
2023-04-09T10:11:42.804Z,24.40
2023-04-09T10:15:31.901Z,27.70
2023-04-09T10:19:13.871Z,28.80
2023-04-09T10:22:52.189Z,29.00
2023-04-09T10:26:22.770Z,27.10
2023-04-09T10:30:07.650Z,28.80
2023-04-09T10:33:56.626Z,28.10
2023-04-09T10:37:45.559Z,26.70
2023-04-09T10:41:22.572Z,27.40
2023-04-09T10:45:22.277Z,27.70
2023-04-09T10:48:59.364Z,26.70
2023-04-09T10:53:02.302Z,26.40
2023-04-09T10:56:54.839Z,27.60
2023-04-09T11:00:36.639Z,26.20
2023-04-09T11:04:11.524Z,27.60
2023-04-09T11:08:00.478Z,26.50
2023-04-09T11:11:42.878Z,25.50
2023-04-09T11:15:17.211Z,26.40
2023-04-09T11:18:56.141Z,25.70
2023-04-09T11:22:39.121Z,26.50
2023-04-09T11:26:31.117Z,28.90
2023-04-09T11:30:09.047Z,27.10
2023-04-09T11:33:51.042Z,24.00
2023-04-09T11:37:36.302Z,24.50
2023-04-09T11:41:27.212Z,24.00
2023-04-09T11:45:16.751Z,22.90
2023-04-09T11:48:44.733Z,22.40
2023-04-09T11:52:32.784Z,23.70
2023-04-09T11:56:25.055Z,22.90
2023-04-09T12:00:14.303Z,20.90
2023-04-09T12:04:00.829Z,20.10
2023-04-09T12:07:56.385Z,21.90
2023-04-09T12:11:39.123Z,20.90
2023-04-09T12:15:18.951Z,21.20
2023-04-09T12:18:56.078Z,18.40
2023-04-09T12:22:48.282Z,22.50
2023-04-09T12:26:12.252Z,21.40
2023-04-09T12:30:02.255Z,20.70
2023-04-09T12:33:52.035Z,20.40
2023-04-09T12:37:33.174Z,20.30
2023-04-09T12:41:23.272Z,21.10
2023-04-09T12:45:14.342Z,20.10
2023-04-09T12:49:04.275Z,20.40
2023-04-09T12:52:53.127Z,19.90
2023-04-09T12:56:37.092Z,14.50
2023-04-09T13:00:26.282Z,13.10
2023-04-09T13:04:14.506Z,15.90
2023-04-09T13:07:46.778Z,20.10
2023-04-09T13:11:21.960Z,18.30
2023-04-09T13:15:03.995Z,18.40
2023-04-09T13:18:54.096Z,18.30
2023-04-09T13:22:43.496Z,12.90
2023-04-09T13:26:25.378Z,17.70
2023-04-09T13:30:13.339Z,18.70
2023-04-09T13:34:02.668Z,15.30
2023-04-09T13:37:51.941Z,13.80
2023-04-09T13:41:21.348Z,16.10
2023-04-09T13:45:10.611Z,14.90
2023-04-09T13:48:59.904Z,15.50
2023-04-09T13:52:34.818Z,17.70
2023-04-09T13:56:14.248Z,17.30
2023-04-09T14:00:04.213Z,15.80
2023-04-09T14:03:53.533Z,14.20
2023-04-09T14:07:43.276Z,15.20
2023-04-09T14:11:32.700Z,15.00
2023-04-09T14:15:21.972Z,12.90
2023-04-09T14:19:10.883Z,15.50
2023-04-09T14:23:00.416Z,16.60
2023-04-09T14:26:49.871Z,15.40
2023-04-09T14:30:16.116Z,10.90
2023-04-09T14:34:05.181Z,16.20
2023-04-09T14:37:54.475Z,15.60
2023-04-09T14:41:44.153Z,13.40
2023-04-09T14:45:35.537Z,16.20
2023-04-09T14:49:25.139Z,12.00
2023-04-09T14:53:14.828Z,14.70
2023-04-09T14:57:04.514Z,16.10
2023-04-09T15:00:54.298Z,14.70
2023-04-09T15:04:32.891Z,16.90
2023-04-09T15:08:22.227Z,15.20
2023-04-09T15:12:11.584Z,16.00
2023-04-09T15:15:43.802Z,16.60
2023-04-09T15:19:32.836Z,17.20
2023-04-09T15:23:22.394Z,16.20
2023-04-09T15:27:11.830Z,17.00
2023-04-09T15:31:01.674Z,17.00
2023-04-09T15:34:51.094Z,16.30
2023-04-09T15:38:43.442Z,16.40
2023-04-09T15:42:32.938Z,16.40
2023-04-09T15:46:21.730Z,17.10
2023-04-09T15:50:02.351Z,15.30
2023-04-09T15:53:42.539Z,15.60
2023-04-09T15:57:53.351Z,16.00
2023-04-09T16:01:42.263Z,15.30
2023-04-09T16:05:31.604Z,14.70
2023-04-09T16:09:21.587Z,15.30
2023-04-09T16:13:05.023Z,14.80
2023-04-09T16:16:54.022Z,15.70
2023-04-09T16:20:43.445Z,15.70
2023-04-09T16:24:32.804Z,14.90
2023-04-09T16:28:26.785Z,15.20
2023-04-09T16:32:16.013Z,13.90
2023-04-09T16:36:04.975Z,14.90
2023-04-09T16:39:54.012Z,15.70
2023-04-09T16:43:43.278Z,15.40
2023-04-09T16:47:33.078Z,27.70
2023-04-09T16:51:22.054Z,27.00
2023-04-09T16:55:11.175Z,25.00
2023-04-09T16:59:00.449Z,24.50
2023-04-09T17:02:49.738Z,22.40
2023-04-09T17:06:37.818Z,21.80
2023-04-09T17:10:28.219Z,19.90
2023-04-09T17:14:17.649Z,17.80
2023-04-09T17:18:06.397Z,19.70
2023-04-09T17:21:58.939Z,21.50
2023-04-09T17:29:52.349Z,40.80
2023-04-09T17:34:01.179Z,23.60
2023-04-09T17:38:29.367Z,23.70
2023-04-09T17:42:37.807Z,21.00
2023-04-09T17:47:06.338Z,16.50
2023-04-09T17:51:15.167Z,15.00
2023-04-09T17:55:46.033Z,16.60
2023-04-09T17:59:56.090Z,15.80
2023-04-09T18:04:06.686Z,15.60
2023-04-09T18:08:37.834Z,18.20
2023-04-09T18:12:52.405Z,20.70
2023-04-09T18:17:01.241Z,17.30
2023-04-09T18:21:10.316Z,17.20
2023-04-09T18:25:39.851Z,15.70
2023-04-09T18:29:41.682Z,15.40
2023-04-09T18:34:09.927Z,16.90
2023-04-09T18:38:28.234Z,17.50
2023-04-09T18:42:49.458Z,16.70
2023-04-09T18:47:18.780Z,17.80
2023-04-09T18:51:46.987Z,18.50
2023-04-09T18:56:18.135Z,19.20
2023-04-09T19:00:56.726Z,17.20
2023-04-09T19:05:14.373Z,17.90
2023-04-09T19:09:44.056Z,16.50
2023-04-09T19:14:16.110Z,18.20
2023-04-09T19:18:25.443Z,18.40
2023-04-09T19:22:27.437Z,18.60
2023-04-09T19:27:04.562Z,22.60
2023-04-09T19:31:27.571Z,25.00
2023-04-09T19:35:57.196Z,20.60
2023-04-09T19:40:25.842Z,20.60
2023-04-09T19:44:53.572Z,18.10
2023-04-09T19:49:22.970Z,17.80
2023-04-09T19:53:33.023Z,18.60
2023-04-09T19:58:04.498Z,18.90
2023-04-09T20:02:14.318Z,17.50
2023-04-09T20:06:47.790Z,18.20
2023-04-09T20:11:20.603Z,19.50
2023-04-09T20:15:50.018Z,18.90
2023-04-09T20:20:19.020Z,19.20
2023-04-09T20:24:48.538Z,19.20
2023-04-09T20:28:59.092Z,20.40
2023-04-09T20:33:10.805Z,21.10
2023-04-09T20:37:21.694Z,21.10
2023-04-09T20:41:50.412Z,21.40
2023-04-09T20:46:07.807Z,21.40
2023-04-09T20:50:37.305Z,22.10
2023-04-09T20:54:47.023Z,21.50
2023-04-09T20:59:18.520Z,22.80
2023-04-09T21:03:52.930Z,22.70
2023-04-09T21:08:20.872Z,21.10
2023-04-09T21:12:51.324Z,22.40
2023-04-09T21:17:17.866Z,23.20
2023-04-09T21:21:05.674Z,23.40
2023-04-09T21:24:53.957Z,24.50
2023-04-09T21:28:42.466Z,33.10
2023-04-09T21:32:30.627Z,39.80
2023-04-09T21:36:09.115Z,34.50
2023-04-09T21:39:31.847Z,30.50
2023-04-09T21:43:13.751Z,32.40
2023-04-09T21:46:22.337Z,21.30
2023-04-09T21:49:40.923Z,21.10
2023-04-09T21:53:27.214Z,20.90
2023-04-09T21:56:54.761Z,21.10
2023-04-09T22:00:32.306Z,22.90
2023-04-09T22:03:26.263Z,24.30
2023-04-09T22:06:47.299Z,25.10
2023-04-09T22:10:33.583Z,28.30
2023-04-09T22:14:21.252Z,28.80
2023-04-09T22:18:08.916Z,25.20
2023-04-09T22:21:47.288Z,24.40
2023-04-09T22:25:34.922Z,24.40
2023-04-09T22:28:34.926Z,25.00
2023-04-09T22:31:58.056Z,25.20
2023-04-09T22:35:18.893Z,24.30
2023-04-09T22:39:06.743Z,24.80
2023-04-09T22:42:34.739Z,20.80
2023-04-09T22:46:20.277Z,17.60
2023-04-09T22:49:57.827Z,17.40
2023-04-09T22:53:20.699Z,17.10
2023-04-09T22:56:38.965Z,17.80
2023-04-09T23:00:09.220Z,18.50
2023-04-09T23:03:39.922Z,19.00
2023-04-09T23:07:12.342Z,22.10
2023-04-09T23:10:45.258Z,21.50
2023-04-09T23:13:52.558Z,24.60
2023-04-09T23:17:31.283Z,29.90
2023-04-09T23:21:11.686Z,28.20
2023-04-09T23:24:59.795Z,26.10
2023-04-09T23:28:47.288Z,25.70
2023-04-09T23:32:14.541Z,25.30
2023-04-09T23:36:01.988Z,25.50
2023-04-09T23:39:49.459Z,25.90
2023-04-09T23:43:25.827Z,26.60
2023-04-09T23:46:45.980Z,26.50
2023-04-09T23:50:13.325Z,24.70
2023-04-09T23:54:01.859Z,24.00
2023-04-09T23:57:16.318Z,23.70
